LEXJ/SDR METAR and TAF weather

Enter ICAO airport designator
Station Type Date Time Source
LEXJ METAR 2020/04/09 10:30 UTC NOAA

LEXJ 091030Z AUTO 05004KT 360V080 7000 NCD 15/15 Q1017


Station Type Date Time Source
LEXJ Decoded METAR 2020/04/09 10:30 UTC NOAA

Santander / Parayas, Spain (LEXJ) 43-26N 003-49W 9M
Apr 09, 2020 - 06:30 AM EDT / 2020.04.09 1030 UTC
Wind: from the NE (050 degrees) at 5 MPH (4 KT) (direction variable):0
Visibility: 4 mile(s):0
Temperature: 59 F (15 C)
Dew Point: 59 F (15 C)
Relative Humidity: 100%
Pressure (altimeter): 30.03 in. Hg (1017 hPa)
ob: LEXJ 091030Z AUTO 05004KT 360V080 7000 NCD 15/15 Q1017
cycle: 10

Station Type Date Time Source
LEXJ TAF 2020/04/09 09:27 UTC NOAA

TAF TAF LEXJ 090800Z 0909/1009 05008KT 9999 SCT030 TX25/0914Z TN13/1005Z
TEMPO 0909/0912 3000 BR BKN005 PROB30
TEMPO 0909/0912 0350 FG VV001 PROB30
TEMPO 0912/0918 SHRA TS SCT025CB

Example: see airport list